createdAt,value
2023-04-08T00:01:24.544Z,16.63
2023-04-08T00:03:52.531Z,16.70
2023-04-08T00:06:20.565Z,17.05
2023-04-08T00:08:48.656Z,16.35
2023-04-08T00:11:17.883Z,17.70
2023-04-08T00:13:45.958Z,17.92
2023-04-08T00:16:13.805Z,18.23
2023-04-08T00:18:42.707Z,18.77
2023-04-08T00:21:10.605Z,18.23
2023-04-08T00:23:38.382Z,19.10
2023-04-08T00:26:06.216Z,19.02
2023-04-08T00:28:35.503Z,18.55
2023-04-08T00:31:03.277Z,19.05
2023-04-08T00:33:31.084Z,19.33
2023-04-08T00:35:58.886Z,19.40
2023-04-08T00:38:26.670Z,19.70
2023-04-08T00:40:54.426Z,22.02
2023-04-08T00:43:22.191Z,19.60
2023-04-08T00:45:51.376Z,20.80
2023-04-08T00:48:19.165Z,21.00
2023-04-08T00:50:47.270Z,21.52
2023-04-08T00:53:18.468Z,21.77
2023-04-08T00:55:46.465Z,23.55
2023-04-08T00:58:15.358Z,23.45
2023-04-08T01:00:48.492Z,24.65
2023-04-08T01:03:19.969Z,25.63
2023-04-08T01:05:57.170Z,26.15
2023-04-08T01:08:28.030Z,28.15
2023-04-08T01:10:59.663Z,28.98
2023-04-08T01:13:32.825Z,29.10
2023-04-08T01:16:00.912Z,28.05
2023-04-08T01:18:31.698Z,30.05
2023-04-08T01:21:00.276Z,28.95
2023-04-08T01:23:38.315Z,30.20
2023-04-08T01:26:07.510Z,27.50
2023-04-08T01:28:36.431Z,29.42
2023-04-08T01:31:05.079Z,29.40
2023-04-08T01:33:33.771Z,29.60
2023-04-08T01:36:02.619Z,28.15
2023-04-08T01:38:32.860Z,28.30
2023-04-08T01:41:01.403Z,28.80
2023-04-08T01:43:32.223Z,28.80
2023-04-08T01:46:01.205Z,28.92
2023-04-08T01:48:29.676Z,27.13
2023-04-08T01:50:58.276Z,28.15
2023-04-08T01:53:26.315Z,28.08
2023-04-08T01:56:10.358Z,28.83
2023-04-08T01:58:42.993Z,28.95
2023-04-08T02:01:13.429Z,27.92
2023-04-08T02:03:44.533Z,28.90
2023-04-08T02:06:12.435Z,29.00
2023-04-08T02:08:40.267Z,28.75
2023-04-08T02:11:08.000Z,28.80
2023-04-08T02:13:35.938Z,28.08
2023-04-08T02:16:11.975Z,28.48
2023-04-08T02:18:44.620Z,27.60
2023-04-08T02:21:15.537Z,28.02
2023-04-08T02:23:47.165Z,28.83
2023-04-08T02:26:16.857Z,29.77
2023-04-08T02:28:44.996Z,27.65
2023-04-08T02:31:15.781Z,29.23
2023-04-08T02:33:44.426Z,29.45
2023-04-08T02:36:13.406Z,28.27
2023-04-08T02:38:41.306Z,27.38
2023-04-08T02:41:09.124Z,27.60
2023-04-08T02:43:36.879Z,27.77
2023-04-08T02:46:04.746Z,27.58
2023-04-08T02:48:34.298Z,26.98
2023-04-08T02:51:02.098Z,26.38
2023-04-08T02:53:30.000Z,27.35
2023-04-08T02:55:57.760Z,26.05
2023-04-08T02:58:25.493Z,27.27
2023-04-08T03:00:53.440Z,27.48
2023-04-08T03:03:27.665Z,26.98
2023-04-08T03:05:57.607Z,25.83
2023-04-08T03:08:25.821Z,25.83
2023-04-08T03:10:53.762Z,27.95
2023-04-08T03:13:21.486Z,28.40
2023-04-08T03:15:49.298Z,25.13
2023-04-08T03:18:17.805Z,25.13
2023-04-08T03:20:45.550Z,24.80
2023-04-08T03:23:14.726Z,25.58
2023-04-08T03:25:42.411Z,23.80
2023-04-08T03:28:10.166Z,22.27
2023-04-08T03:30:38.095Z,25.83
2023-04-08T03:33:08.105Z,22.88
2023-04-08T03:35:36.112Z,21.48
2023-04-08T03:38:03.976Z,23.33
2023-04-08T03:40:33.071Z,21.38
2023-04-08T03:43:01.145Z,29.05
2023-04-08T03:45:28.890Z,26.45
2023-04-08T03:47:56.635Z,20.80
2023-04-08T03:50:24.558Z,20.52
2023-04-08T03:52:52.330Z,25.63
2023-04-08T03:55:20.048Z,17.42
2023-04-08T03:57:49.211Z,16.33
2023-04-08T04:00:17.110Z,19.83
2023-04-08T04:02:44.970Z,15.75
2023-04-08T04:05:12.761Z,17.83
2023-04-08T04:07:40.554Z,14.30
2023-04-08T04:10:10.408Z,13.50
2023-04-08T04:12:38.161Z,17.75
2023-04-08T04:15:08.538Z,16.33
2023-04-08T04:17:36.287Z,13.80
2023-04-08T04:20:05.475Z,15.27
2023-04-08T04:22:33.294Z,16.52
2023-04-08T04:25:01.017Z,15.63
2023-04-08T04:27:28.782Z,14.52
2023-04-08T04:29:56.974Z,19.17
2023-04-08T04:32:26.400Z,14.98
2023-04-08T04:34:54.172Z,17.10
2023-04-08T04:37:22.011Z,14.57
2023-04-08T04:39:49.812Z,14.50
2023-04-08T04:42:17.545Z,14.38
2023-04-08T04:44:45.317Z,15.27
2023-04-08T04:47:13.037Z,14.27
2023-04-08T04:49:42.132Z,18.17
2023-04-08T04:52:09.895Z,13.98
2023-04-08T04:54:37.622Z,13.68
2023-04-08T04:57:05.601Z,13.60
2023-04-08T04:59:33.341Z,14.52
2023-04-08T05:02:01.224Z,17.40
2023-04-08T05:04:28.977Z,12.05
2023-04-08T05:07:00.392Z,12.98
2023-04-08T05:09:28.159Z,12.65
2023-04-08T05:11:55.842Z,15.73
2023-04-08T05:14:23.657Z,19.90
2023-04-08T05:16:51.472Z,16.45
2023-04-08T05:19:19.231Z,16.38
2023-04-08T05:21:47.022Z,15.55
2023-04-08T05:24:16.159Z,15.32
2023-04-08T05:26:43.904Z,16.10
2023-04-08T05:29:11.882Z,15.75
2023-04-08T05:31:39.725Z,15.18
2023-04-08T05:34:07.497Z,16.45
2023-04-08T05:36:35.316Z,14.77
2023-04-08T05:39:03.558Z,14.95
2023-04-08T05:41:32.717Z,15.65
2023-04-08T05:44:00.478Z,15.52
2023-04-08T05:46:28.253Z,14.18
2023-04-08T05:48:56.053Z,15.35
2023-04-08T05:51:23.767Z,18.08
2023-04-08T05:53:51.523Z,15.40
2023-04-08T05:56:19.240Z,17.17
2023-04-08T05:58:48.632Z,15.20
2023-04-08T06:01:16.784Z,16.70
2023-04-08T06:03:44.744Z,14.00
2023-04-08T06:06:13.092Z,14.77
2023-04-08T06:08:41.083Z,18.58
2023-04-08T06:11:08.846Z,17.02
2023-04-08T06:13:37.313Z,14.80
2023-04-08T06:16:13.483Z,16.67
2023-04-08T06:18:41.519Z,15.05
2023-04-08T06:21:09.484Z,17.25
2023-04-08T06:23:37.416Z,14.77
2023-04-08T06:26:05.837Z,16.05
2023-04-08T06:28:33.704Z,17.33
2023-04-08T06:31:01.661Z,15.77
2023-04-08T06:33:30.825Z,15.25
2023-04-08T06:36:08.389Z,18.73
2023-04-08T06:38:36.582Z,18.23
2023-04-08T06:41:04.806Z,16.75
2023-04-08T06:43:32.704Z,20.02
2023-04-08T06:46:00.572Z,15.90
2023-04-08T06:48:30.587Z,18.40
2023-04-08T06:51:01.347Z,16.38
2023-04-08T06:53:31.249Z,17.27
2023-04-08T06:55:59.120Z,22.02
2023-04-08T06:58:27.327Z,17.88
2023-04-08T07:00:55.768Z,17.17
2023-04-08T07:03:24.037Z,18.65
2023-04-08T07:05:51.923Z,17.67
2023-04-08T07:08:21.278Z,17.65
2023-04-08T07:10:49.057Z,18.08
2023-04-08T07:13:17.457Z,17.05
2023-04-08T07:15:45.199Z,20.75
2023-04-08T07:18:13.541Z,21.00
2023-04-08T07:20:41.989Z,19.60
2023-04-08T07:23:10.853Z,20.70
2023-04-08T07:25:39.978Z,19.85
2023-04-08T07:28:07.742Z,22.02
2023-04-08T07:30:35.520Z,20.40
2023-04-08T07:33:03.311Z,23.50
2023-04-08T07:35:32.042Z,22.60
2023-04-08T07:38:00.151Z,21.98
2023-04-08T07:40:27.963Z,23.38
2023-04-08T07:42:57.269Z,22.73
2023-04-08T07:45:25.043Z,22.77
2023-04-08T07:47:52.800Z,22.42
2023-04-08T07:50:20.686Z,24.38
2023-04-08T07:52:48.387Z,24.88
2023-04-08T07:55:16.331Z,25.17
2023-04-08T07:57:44.166Z,23.92
2023-04-08T08:00:20.845Z,25.20
2023-04-08T08:02:49.242Z,23.70
2023-04-08T08:05:17.371Z,24.48
2023-04-08T08:07:45.280Z,24.05
2023-04-08T08:10:13.076Z,23.60
2023-04-08T08:12:40.940Z,24.02
2023-04-08T08:15:10.140Z,23.98
2023-04-08T08:17:39.271Z,23.13
2023-04-08T08:20:08.566Z,27.00
2023-04-08T08:22:41.852Z,23.50
2023-04-08T08:25:19.790Z,24.40
2023-04-08T08:27:47.725Z,23.65
2023-04-08T08:30:16.180Z,24.05
2023-04-08T08:32:45.367Z,22.92
2023-04-08T08:35:13.183Z,22.52
2023-04-08T08:37:40.949Z,23.83
2023-04-08T08:40:10.102Z,23.15
2023-04-08T08:42:38.061Z,20.67
2023-04-08T08:45:07.093Z,20.85
2023-04-08T08:47:35.020Z,19.88
2023-04-08T08:50:04.316Z,20.95
2023-04-08T08:52:32.224Z,18.65
2023-04-08T08:55:01.369Z,20.20
2023-04-08T08:57:29.126Z,18.15
2023-04-08T08:59:57.388Z,19.58
2023-04-08T09:02:27.775Z,18.98
2023-04-08T09:05:00.600Z,18.40
2023-04-08T09:07:31.146Z,19.20
2023-04-08T09:10:00.679Z,18.23
2023-04-08T09:12:29.531Z,19.05
2023-04-08T09:15:08.583Z,17.10
2023-04-08T09:17:37.804Z,17.23
2023-04-08T09:20:11.552Z,17.02
2023-04-08T09:25:35.766Z,16.20
2023-04-08T09:28:03.613Z,16.13
2023-04-08T09:30:33.484Z,15.88
2023-04-08T09:33:01.499Z,16.02
2023-04-08T09:35:29.365Z,16.30
2023-04-08T09:37:57.205Z,16.20
2023-04-08T09:40:27.954Z,15.70
2023-04-08T09:42:58.275Z,15.10
2023-04-08T09:45:28.117Z,15.20
2023-04-08T09:47:59.210Z,15.65
2023-04-08T09:50:31.702Z,16.17
2023-04-08T09:53:04.354Z,16.13
2023-04-08T09:55:37.458Z,16.02
2023-04-08T09:58:16.666Z,15.70
2023-04-08T10:00:50.731Z,14.63
2023-04-08T10:03:29.327Z,15.20
2023-04-08T10:05:58.018Z,15.02
2023-04-08T10:08:27.082Z,15.85
2023-04-08T10:10:56.323Z,15.25
2023-04-08T10:13:28.276Z,16.27
2023-04-08T10:16:20.091Z,15.75
2023-04-08T10:18:47.834Z,16.38
2023-04-08T10:21:33.099Z,15.45
2023-04-08T10:24:06.307Z,15.90
2023-04-08T10:26:39.790Z,17.05
2023-04-08T10:29:44.021Z,16.48
2023-04-08T10:32:30.075Z,15.30
2023-04-08T10:34:57.981Z,16.05
2023-04-08T10:37:25.778Z,14.30
2023-04-08T10:39:55.531Z,13.35
2023-04-08T10:42:28.887Z,14.20
2023-04-08T10:45:01.812Z,14.57
2023-04-08T10:47:30.969Z,15.17
2023-04-08T10:49:58.717Z,10.52
2023-04-08T10:52:27.565Z,10.73
2023-04-08T10:54:55.915Z,10.63
2023-04-08T10:57:27.210Z,12.23
2023-04-08T10:59:55.076Z,10.70
2023-04-08T11:02:23.179Z,11.30
2023-04-08T11:04:55.951Z,9.77
2023-04-08T11:07:24.040Z,9.18
2023-04-08T11:09:52.064Z,10.05
2023-04-08T11:12:19.814Z,10.15
2023-04-08T11:14:49.578Z,10.18
2023-04-08T11:17:17.820Z,10.57
2023-04-08T11:19:45.749Z,10.55
2023-04-08T11:22:15.047Z,9.60
2023-04-08T11:24:43.034Z,9.70
2023-04-08T11:27:11.109Z,9.68
2023-04-08T11:29:39.651Z,9.85
2023-04-08T11:32:08.998Z,10.70
2023-04-08T11:34:40.745Z,9.48
2023-04-08T11:37:09.575Z,9.07
2023-04-08T11:39:44.065Z,8.82
2023-04-08T11:42:27.801Z,8.80
2023-04-08T11:44:55.681Z,8.73
2023-04-08T11:47:23.769Z,8.85
2023-04-08T11:49:51.687Z,8.88
2023-04-08T11:52:19.380Z,9.00
2023-04-08T11:54:49.962Z,8.40
2023-04-08T11:57:29.630Z,8.20
2023-04-08T11:59:57.344Z,8.65
2023-04-08T12:02:25.325Z,8.10
2023-04-08T12:04:53.470Z,8.75
2023-04-08T12:07:21.543Z,8.15
2023-04-08T12:09:50.996Z,8.77
2023-04-08T12:12:18.780Z,9.15
2023-04-08T12:14:46.503Z,8.85
2023-04-08T12:17:14.215Z,8.65
2023-04-08T12:19:42.232Z,9.70
2023-04-08T12:22:09.979Z,9.15
2023-04-08T12:24:37.711Z,7.97
2023-04-08T12:27:08.296Z,7.80
2023-04-08T12:29:36.050Z,9.00
2023-04-08T12:32:04.596Z,8.60
2023-04-08T12:34:32.735Z,8.07
2023-04-08T12:37:00.589Z,7.82
2023-04-08T12:39:28.385Z,7.85
2023-04-08T12:41:56.934Z,8.15
2023-04-08T12:44:26.403Z,8.35
2023-04-08T12:46:54.737Z,8.45
2023-04-08T12:49:23.462Z,9.05
2023-04-08T12:51:51.458Z,8.25
2023-04-08T12:54:19.277Z,8.52
2023-04-08T12:56:48.791Z,7.30
2023-04-08T12:59:16.918Z,7.70
2023-04-08T13:01:46.196Z,8.25
2023-04-08T13:04:14.077Z,8.40
2023-04-08T13:06:41.962Z,8.63
2023-04-08T13:09:09.753Z,7.80
2023-04-08T13:11:37.488Z,8.38
2023-04-08T13:14:05.230Z,8.30
2023-04-08T13:16:33.180Z,7.78
2023-04-08T13:19:05.159Z,8.15
2023-04-08T13:21:32.908Z,8.40
2023-04-08T13:24:03.469Z,8.27
2023-04-08T13:26:31.280Z,8.35
2023-04-08T13:28:59.061Z,7.60
2023-04-08T13:31:27.224Z,7.70
2023-04-08T13:33:57.988Z,8.48
2023-04-08T13:36:28.614Z,8.43
2023-04-08T13:38:56.730Z,8.70
2023-04-08T13:41:25.349Z,8.23
2023-04-08T13:43:53.769Z,8.63
2023-04-08T13:46:21.594Z,8.02
2023-04-08T13:48:49.658Z,9.05
2023-04-08T13:51:17.820Z,8.85
2023-04-08T13:53:51.076Z,8.43
2023-04-08T13:56:18.859Z,8.85
2023-04-08T13:58:52.313Z,8.65
2023-04-08T14:01:24.547Z,8.32
2023-04-08T14:03:52.327Z,7.88
2023-04-08T14:06:20.073Z,8.30
2023-04-08T14:08:49.552Z,9.13
2023-04-08T14:11:17.552Z,8.38
2023-04-08T14:13:47.873Z,8.10
2023-04-08T14:16:16.821Z,9.13
2023-04-08T14:18:44.708Z,9.00
2023-04-08T14:21:14.097Z,8.80
2023-04-08T14:23:41.962Z,8.65
2023-04-08T14:26:11.046Z,8.23
2023-04-08T14:28:38.821Z,8.98
2023-04-08T14:31:06.755Z,9.98
2023-04-08T14:33:34.570Z,8.38
2023-04-08T14:36:02.383Z,8.77
2023-04-08T14:38:30.104Z,8.88
2023-04-08T14:40:57.839Z,7.95
2023-04-08T14:43:26.974Z,8.13
2023-04-08T14:45:54.845Z,7.75
2023-04-08T14:48:24.959Z,8.43
2023-04-08T14:50:52.753Z,9.05
2023-04-08T14:53:20.463Z,8.45
2023-04-08T14:55:48.214Z,8.38
2023-04-08T14:58:16.604Z,8.50
2023-04-08T15:00:47.794Z,8.32
2023-04-08T15:03:19.007Z,8.82
2023-04-08T15:05:46.862Z,9.70
2023-04-08T15:08:14.603Z,8.38
2023-04-08T15:10:42.379Z,8.65
2023-04-08T15:13:11.553Z,7.47
2023-04-08T15:15:39.293Z,7.75
2023-04-08T15:18:08.537Z,8.30
2023-04-08T15:20:36.402Z,7.32
2023-04-08T15:23:04.155Z,7.13
2023-04-08T15:25:32.812Z,6.00
2023-04-08T15:28:02.604Z,6.03
2023-04-08T15:30:35.217Z,5.00
2023-04-08T15:33:04.667Z,5.80
2023-04-08T15:35:33.959Z,5.05
2023-04-08T15:38:01.858Z,4.90
2023-04-08T15:40:32.174Z,4.82
2023-04-08T15:42:59.891Z,5.25
2023-04-08T15:45:28.557Z,5.45
2023-04-08T15:47:56.621Z,5.22
2023-04-08T15:50:24.407Z,4.55
2023-04-08T15:52:53.531Z,4.60
2023-04-08T15:55:21.331Z,4.40
2023-04-08T15:57:49.319Z,4.30
2023-04-08T16:00:17.722Z,3.90
2023-04-08T16:02:46.694Z,4.20
2023-04-08T16:05:14.751Z,3.05
2023-04-08T16:07:43.133Z,3.13
2023-04-08T16:10:12.301Z,2.63
2023-04-08T16:12:40.086Z,2.95
2023-04-08T16:15:08.452Z,3.40
2023-04-08T16:17:36.352Z,3.25
2023-04-08T16:20:05.000Z,3.10
2023-04-08T16:22:32.764Z,2.95
2023-04-08T16:25:00.580Z,3.15
2023-04-08T16:27:29.728Z,3.20
2023-04-08T16:29:58.186Z,2.95
2023-04-08T16:32:26.175Z,3.58
2023-04-08T16:34:53.992Z,3.67
2023-04-08T16:37:21.809Z,3.15
2023-04-08T16:39:49.818Z,3.90
2023-04-08T16:42:18.241Z,4.05
2023-04-08T16:44:47.360Z,3.85
2023-04-08T16:47:15.465Z,4.10
2023-04-08T16:49:43.170Z,4.40
2023-04-08T16:52:11.020Z,4.25
2023-04-08T16:54:38.754Z,4.35
2023-04-08T16:57:06.545Z,4.40
2023-04-08T16:59:34.290Z,4.38
2023-04-08T17:02:03.577Z,4.75
2023-04-08T17:04:31.418Z,4.50
2023-04-08T17:06:59.227Z,4.28
2023-04-08T17:09:28.162Z,4.25
2023-04-08T17:11:57.281Z,4.30
2023-04-08T17:14:25.250Z,4.95
2023-04-08T17:16:53.099Z,4.38
2023-04-08T17:19:22.274Z,4.85
2023-04-08T17:21:50.269Z,5.18
2023-04-08T17:24:18.088Z,5.13
2023-04-08T17:26:46.202Z,5.45
2023-04-08T17:29:13.962Z,5.35
2023-04-08T17:31:41.807Z,5.18
2023-04-08T17:34:09.552Z,5.60
2023-04-08T17:36:38.702Z,6.30
2023-04-08T17:39:06.491Z,6.72
2023-04-08T17:41:40.162Z,7.50
2023-04-08T17:44:08.575Z,7.90
2023-04-08T17:46:36.796Z,8.35
2023-04-08T17:49:04.639Z,9.95
2023-04-08T17:51:33.038Z,8.65
2023-04-08T17:54:02.288Z,8.15
2023-04-08T17:56:30.026Z,9.50
2023-04-08T17:58:57.820Z,9.57
2023-04-08T18:01:25.683Z,11.00
2023-04-08T18:03:53.766Z,11.27
2023-04-08T18:06:22.016Z,11.80
2023-04-08T18:08:49.777Z,11.75
2023-04-08T18:11:19.671Z,12.88
2023-04-08T18:13:48.716Z,12.55
2023-04-08T18:16:18.266Z,13.32
2023-04-08T18:18:46.171Z,13.07
2023-04-08T18:21:15.042Z,13.30
2023-04-08T18:23:43.013Z,13.48
2023-04-08T18:26:10.883Z,13.52
2023-04-08T18:28:40.028Z,15.25
2023-04-08T18:31:08.242Z,14.50
2023-04-08T18:33:36.345Z,15.50
2023-04-08T18:36:08.388Z,15.68
2023-04-08T18:38:36.767Z,14.90
2023-04-08T18:41:04.980Z,14.85
2023-04-08T18:43:33.212Z,14.40
2023-04-08T18:46:02.411Z,14.30
2023-04-08T18:48:30.456Z,14.20
2023-04-08T18:50:58.646Z,15.13
2023-04-08T18:53:26.487Z,15.00
2023-04-08T18:55:54.859Z,16.60
2023-04-08T18:58:22.773Z,16.45
2023-04-08T19:00:53.736Z,16.15
2023-04-08T19:03:22.992Z,16.70
2023-04-08T19:05:51.488Z,15.40
2023-04-08T19:08:19.265Z,16.13
2023-04-08T19:10:47.028Z,15.95
2023-04-08T19:13:15.019Z,15.10
2023-04-08T19:15:43.130Z,15.80
2023-04-08T19:18:10.947Z,16.05
2023-04-08T19:20:40.100Z,15.90
2023-04-08T19:23:07.858Z,15.73
2023-04-08T19:25:35.611Z,16.05
2023-04-08T19:28:05.460Z,16.50
2023-04-08T19:30:37.233Z,17.17
2023-04-08T19:33:05.123Z,16.60
2023-04-08T19:35:32.998Z,17.23
2023-04-08T19:38:02.158Z,16.33
2023-04-08T19:40:29.927Z,17.20
2023-04-08T19:42:57.671Z,16.58
2023-04-08T19:45:25.421Z,18.05
2023-04-08T19:47:53.224Z,18.25
2023-04-08T19:50:22.349Z,18.30
2023-04-08T19:52:50.240Z,17.52
2023-04-08T19:55:21.664Z,16.65
2023-04-08T19:57:49.711Z,16.58
2023-04-08T20:00:17.514Z,17.75
2023-04-08T20:02:45.590Z,18.13
2023-04-08T20:05:16.214Z,16.85
2023-04-08T20:07:44.473Z,17.00
2023-04-08T20:10:13.359Z,17.42
2023-04-08T20:12:42.541Z,16.17
2023-04-08T20:15:22.979Z,17.85
2023-04-08T20:17:52.725Z,18.08
2023-04-08T20:20:20.896Z,17.38
2023-04-08T20:22:48.806Z,17.77
2023-04-08T20:25:16.821Z,17.38
2023-04-08T20:27:45.920Z,17.17
2023-04-08T20:30:14.198Z,16.52
2023-04-08T20:32:42.053Z,16.63
2023-04-08T20:35:10.949Z,17.35
2023-04-08T20:37:39.062Z,17.83
2023-04-08T20:40:08.460Z,17.50
2023-04-08T20:42:36.462Z,17.05
2023-04-08T20:45:06.276Z,18.05
2023-04-08T20:47:34.074Z,18.77
2023-04-08T20:50:01.873Z,19.23
2023-04-08T20:52:29.571Z,16.75
2023-04-08T20:54:57.326Z,18.75
2023-04-08T20:57:25.073Z,18.77
2023-04-08T20:59:52.861Z,18.30
2023-04-08T21:02:22.245Z,18.73
2023-04-08T21:04:50.109Z,18.27
2023-04-08T21:07:18.128Z,18.77
2023-04-08T21:09:48.163Z,18.90
2023-04-08T21:12:15.960Z,18.40
2023-04-08T21:14:45.248Z,19.20
2023-04-08T21:17:13.138Z,19.40
2023-04-08T21:19:42.667Z,18.70
2023-04-08T21:22:10.486Z,19.48
2023-04-08T21:24:38.245Z,19.08
2023-04-08T21:27:06.077Z,19.08
2023-04-08T21:29:33.810Z,18.67
2023-04-08T21:32:01.568Z,19.77
2023-04-08T21:38:18.017Z,20.30
2023-04-08T21:40:45.962Z,20.10
2023-04-08T21:43:13.742Z,18.90
2023-04-08T21:45:41.546Z,18.70
2023-04-08T21:48:09.359Z,18.58
2023-04-08T21:50:38.500Z,19.50
2023-04-08T21:53:06.446Z,19.45
2023-04-08T21:55:35.724Z,18.63
2023-04-08T21:58:03.493Z,19.75
2023-04-08T22:00:31.250Z,19.77
2023-04-08T22:02:59.206Z,26.08
2023-04-08T22:05:27.037Z,27.50
2023-04-08T22:07:54.949Z,26.55
2023-04-08T22:10:22.834Z,28.10
2023-04-08T22:12:52.055Z,31.33
2023-04-08T22:15:19.762Z,41.15
2023-04-08T22:17:47.538Z,54.63
2023-04-08T22:20:15.333Z,56.83
2023-04-08T22:22:43.096Z,62.63
2023-04-08T22:25:11.512Z,59.30
2023-04-08T22:27:39.524Z,61.60
2023-04-08T22:30:10.422Z,64.53
2023-04-08T22:32:38.206Z,74.78
2023-04-08T22:35:07.001Z,73.95
2023-04-08T22:37:34.772Z,76.45
2023-04-08T22:40:02.755Z,73.28
2023-04-08T22:42:30.576Z,68.05
2023-04-08T22:44:58.325Z,65.15
2023-04-08T22:47:27.488Z,64.18
2023-04-08T22:49:55.423Z,57.65
2023-04-08T22:52:23.266Z,50.10
2023-04-08T22:54:51.279Z,46.30
2023-04-08T22:57:19.098Z,40.20
2023-04-08T22:59:46.850Z,41.55
2023-04-08T23:02:14.744Z,38.35
2023-04-08T23:04:43.914Z,36.80
2023-04-08T23:07:11.645Z,36.00
2023-04-08T23:09:39.381Z,35.63
2023-04-08T23:12:07.183Z,33.08
2023-04-08T23:14:34.937Z,37.78
2023-04-08T23:17:05.039Z,35.00
2023-04-08T23:19:33.250Z,33.08
2023-04-08T23:22:02.374Z,27.48
2023-04-08T23:24:30.354Z,25.65
2023-04-08T23:26:58.051Z,25.48
2023-04-08T23:29:25.839Z,26.70
2023-04-08T23:31:53.582Z,28.17
2023-04-08T23:34:21.286Z,27.85
2023-04-08T23:36:49.090Z,29.52
2023-04-08T23:39:18.832Z,28.20
2023-04-08T23:41:46.595Z,30.25
2023-04-08T23:44:14.389Z,31.05
2023-04-08T23:46:42.205Z,29.02
2023-04-08T23:49:09.983Z,30.02
2023-04-08T23:51:38.874Z,30.27
2023-04-08T23:54:06.704Z,30.90
2023-04-08T23:56:35.837Z,29.17
2023-04-08T23:59:03.561Z,31.05
